Yahata Maru — JL6477 — position and weather

sailwx.info

Track history (hours):
 
Tides and Currents Weather Stations Pressure Air Temp Water Temp Dewpoint Dewpoint Depression Visibility Wind Speed Wind Dir Waves Ship Positions

Yahata Maru

Last reported at 2017-Feb-24 05:31 UTC. Time now 2017-Feb-27 04:44 UTC.
Position N 34°36' E 134°54'.

Length 149 m; draft 4.7 m.

Type: Other ship. MMSI: 431400594.

Date/timePositionNaut miles runAvg speedWind from/ knotsBaromVisibWave heightAir tempDewpointWater temp
2017-Feb-24 05:31N 34°36' E 134°54'7 7.0
2017-Feb-24 04:33N 34°37' E 135°02'8 8.0
2017-Feb-24 03:33N 34°36' E 135°11'10 9.7
2017-Feb-24 02:33N 34°36' E 135°23'2 2.2
2017-Feb-24 01:29N 34°35' E 135°26'0 0.0
2017-Feb-24 00:29N 34°35' E 135°26'0 0.4
2017-Feb-23 23:33N 34°36' E 135°25'5 5.0
2017-Feb-23 22:33N 34°40' E 135°22'4 3.4
2017-Feb-23 21:28N 34°43' E 135°21'0 0.0
2017-Feb-23 20:22N 34°43' E 135°21'0 0.2
2017-Feb-23 19:33N 34°43' E 135°21'2 1.6
2017-Feb-23 18:27N 34°41' E 135°20'0 0.2
2017-Feb-23 17:33N 34°42' E 135°20'7 6.8
2017-Feb-23 16:33N 34°36' E 135°15'1010.0
2017-Feb-23 15:33N 34°36' E 135°03'11 0.4
2017-Feb-22 14:25N 34°34' E 134°50'7 8.5
2017-Feb-22 13:33N 34°37' E 134°58'9 8.7
2017-Feb-22 12:33N 34°36' E 135°09'9 9.1
2017-Feb-22 11:33N 34°40' E 135°18'3 3.4
2017-Feb-22 10:33N 34°43' E 135°21'0 0.0
2017-Feb-22 09:31N 34°43' E 135°21'0 0.0
2017-Feb-22 08:31N 34°43' E 135°21'0 0.0
2017-Feb-22 07:25N 34°43' E 135°21'0 0.0
2017-Feb-22 06:31N 34°43' E 135°21'0 0.0
2017-Feb-22 05:25N 34°43' E 135°21'1 1.3
2017-Feb-22 04:33N 34°42' E 135°21'1 0.7
2017-Feb-22 03:26N 34°42' E 135°20'0 0.1
2017-Feb-22 02:32N 34°42' E 135°20'7 7.1
2017-Feb-22 01:33N 34°35' E 135°17'10 9.6
2017-Feb-22 00:33N 34°28' E 135°09'13 9.6
2017-Feb-21 23:14N 34°18' E 134°60'710.0
2017-Feb-21 22:33N 34°11' E 134°60'1010.0
2017-Feb-21 21:32N 34°01' E 135°01'  
2017-Feb-18 19:30N 34°59' E 139°25'9 9.6
2017-Feb-18 18:33N 35°03' E 139°34'10 9.8
2017-Feb-18 17:33N 35°09' E 139°44'9 8.9
2017-Feb-18 16:33N 35°18' E 139°44'9 9.3
2017-Feb-18 15:33N 35°28' E 139°43'0 0.5
2017-Feb-18 14:31N 35°28' E 139°43'0 0.0
2017-Feb-18 13:31N 35°28' E 139°43'0 0.0
2017-Feb-18 12:31N 35°28' E 139°43'3 3.5
2017-Feb-18 11:33N 35°27' E 139°47'10 9.8
2017-Feb-18 10:34N 35°33' E 139°57'2 1.9
2017-Feb-18 09:32N 35°34' E 139°59'0 0.0
2017-Feb-18 08:33N 35°34' E 139°59'0 0.0
2017-Feb-18 07:29N 35°34' E 139°59'0 0.0
2017-Feb-18 06:32N 35°34' E 139°59'0 0.0
2017-Feb-18 05:32N 35°34' E 139°59'0 0.0
2017-Feb-18 04:29N 35°34' E 139°59'0 0.0
2017-Feb-18 03:32N 35°34' E 139°59'0 0.0
2017-Feb-18 02:29N 35°34' E 139°59'0 0.0
2017-Feb-18 01:32N 35°34' E 139°59'0 0.0
2017-Feb-17 23:32N 35°34' E 139°59'0 0.1
2017-Feb-17 22:30N 35°34' E 139°59'6 0.5
2017-Feb-17 11:29N 35°33' E 140°06'6 4.2
2017-Feb-17 10:07N 35°34' E 139°59'0 0.0
2017-Feb-17 09:23N 35°34' E 139°59'0 0.0
2017-Feb-17 08:26N 35°34' E 139°59'0 0.0
2017-Feb-17 07:28N 35°34' E 139°59'0 0.0
2017-Feb-17 06:31N 35°34' E 139°59'0 0.0
2017-Feb-17 05:22N 35°34' E 139°59'0 0.0
2017-Feb-17 04:27N 35°34' E 139°59'0 0.0
2017-Feb-17 03:23N 35°34' E 139°59'1 0.4
2017-Feb-17 01:32N 35°34' E 139°58'10 9.9
2017-Feb-17 00:34N 35°27' E 139°50'9 9.4
2017-Feb-16 23:34N 35°19' E 139°44'9 9.3
2017-Feb-16 22:33N 35°10' E 139°46'10 9.8
2017-Feb-16 21:34N 35°03' E 139°38'  
Track history (hours):
 
Tides and Currents Weather Stations Pressure Air Temp Water Temp Dewpoint Dewpoint Depression Visibility Wind Speed Wind Dir Waves Ship Positions

Yahata Maru

Last reported at 2017-Feb-24 05:31 UTC. Time now 2017-Feb-27 04:44 UTC.
Position N 34°36' E 134°54'.

Length 149 m; draft 4.7 m.

Type: Other ship. MMSI: 431400594.

Date/timePositionNaut miles runAvg speedWind from/ knotsBaromVisibWave heightAir tempDewpointWater temp
2017-Feb-24 05:31N 34°36' E 134°54'7 7.0
2017-Feb-24 04:33N 34°37' E 135°02'8 8.0
2017-Feb-24 03:33N 34°36' E 135°11'10 9.7
2017-Feb-24 02:33N 34°36' E 135°23'2 2.2
2017-Feb-24 01:29N 34°35' E 135°26'0 0.0
2017-Feb-24 00:29N 34°35' E 135°26'0 0.4
2017-Feb-23 23:33N 34°36' E 135°25'5 5.0
2017-Feb-23 22:33N 34°40' E 135°22'4 3.4
2017-Feb-23 21:28N 34°43' E 135°21'0 0.0
2017-Feb-23 20:22N 34°43' E 135°21'0 0.2
2017-Feb-23 19:33N 34°43' E 135°21'2 1.6
2017-Feb-23 18:27N 34°41' E 135°20'0 0.2
2017-Feb-23 17:33N 34°42' E 135°20'7 6.8
2017-Feb-23 16:33N 34°36' E 135°15'1010.0
2017-Feb-23 15:33N 34°36' E 135°03'11 0.4
2017-Feb-22 14:25N 34°34' E 134°50'7 8.5
2017-Feb-22 13:33N 34°37' E 134°58'9 8.7
2017-Feb-22 12:33N 34°36' E 135°09'9 9.1
2017-Feb-22 11:33N 34°40' E 135°18'3 3.4
2017-Feb-22 10:33N 34°43' E 135°21'0 0.0
2017-Feb-22 09:31N 34°43' E 135°21'0 0.0
2017-Feb-22 08:31N 34°43' E 135°21'0 0.0
2017-Feb-22 07:25N 34°43' E 135°21'0 0.0
2017-Feb-22 06:31N 34°43' E 135°21'0 0.0
2017-Feb-22 05:25N 34°43' E 135°21'1 1.3
2017-Feb-22 04:33N 34°42' E 135°21'1 0.7
2017-Feb-22 03:26N 34°42' E 135°20'0 0.1
2017-Feb-22 02:32N 34°42' E 135°20'7 7.1
2017-Feb-22 01:33N 34°35' E 135°17'10 9.6
2017-Feb-22 00:33N 34°28' E 135°09'13 9.6
2017-Feb-21 23:14N 34°18' E 134°60'710.0
2017-Feb-21 22:33N 34°11' E 134°60'1010.0
2017-Feb-21 21:32N 34°01' E 135°01'  
2017-Feb-18 19:30N 34°59' E 139°25'9 9.6
2017-Feb-18 18:33N 35°03' E 139°34'10 9.8
2017-Feb-18 17:33N 35°09' E 139°44'9 8.9
2017-Feb-18 16:33N 35°18' E 139°44'9 9.3
2017-Feb-18 15:33N 35°28' E 139°43'0 0.5
2017-Feb-18 14:31N 35°28' E 139°43'0 0.0
2017-Feb-18 13:31N 35°28' E 139°43'0 0.0
2017-Feb-18 12:31N 35°28' E 139°43'3 3.5
2017-Feb-18 11:33N 35°27' E 139°47'10 9.8
2017-Feb-18 10:34N 35°33' E 139°57'2 1.9
2017-Feb-18 09:32N 35°34' E 139°59'0 0.0
2017-Feb-18 08:33N 35°34' E 139°59'0 0.0
2017-Feb-18 07:29N 35°34' E 139°59'0 0.0
2017-Feb-18 06:32N 35°34' E 139°59'0 0.0
2017-Feb-18 05:32N 35°34' E 139°59'0 0.0
2017-Feb-18 04:29N 35°34' E 139°59'0 0.0
2017-Feb-18 03:32N 35°34' E 139°59'0 0.0
2017-Feb-18 02:29N 35°34' E 139°59'0 0.0
2017-Feb-18 01:32N 35°34' E 139°59'0 0.0
2017-Feb-17 23:32N 35°34' E 139°59'0 0.1
2017-Feb-17 22:30N 35°34' E 139°59'6 0.5
2017-Feb-17 11:29N 35°33' E 140°06'6 4.2
2017-Feb-17 10:07N 35°34' E 139°59'0 0.0
2017-Feb-17 09:23N 35°34' E 139°59'0 0.0
2017-Feb-17 08:26N 35°34' E 139°59'0 0.0
2017-Feb-17 07:28N 35°34' E 139°59'0 0.0
2017-Feb-17 06:31N 35°34' E 139°59'0 0.0
2017-Feb-17 05:22N 35°34' E 139°59'0 0.0
2017-Feb-17 04:27N 35°34' E 139°59'0 0.0
2017-Feb-17 03:23N 35°34' E 139°59'1 0.4
2017-Feb-17 01:32N 35°34' E 139°58'10 9.9
2017-Feb-17 00:34N 35°27' E 139°50'9 9.4
2017-Feb-16 23:34N 35°19' E 139°44'9 9.3
2017-Feb-16 22:33N 35°10' E 139°46'10 9.8
2017-Feb-16 21:34N 35°03' E 139°38'  

Dump ship's entire track history